createdAt,value
2018-04-18T00:01:55.736Z,10.60
2018-04-18T00:04:23.455Z,10.30
2018-04-18T00:07:17.092Z,10.50
2018-04-18T00:09:45.126Z,10.50
2018-04-18T00:12:19.463Z,10.40
2018-04-18T00:14:47.880Z,10.30
2018-04-18T00:17:17.932Z,10.30
2018-04-18T00:19:45.749Z,10.40
2018-04-18T00:22:16.200Z,10.20
2018-04-18T00:24:43.892Z,10.20
2018-04-18T00:27:18.004Z,10.20
2018-04-18T00:29:45.695Z,10.10
2018-04-18T00:32:19.616Z,10.00
2018-04-18T00:34:48.088Z,10.00
2018-04-18T00:37:17.273Z,9.90
2018-04-18T00:39:45.744Z,9.90
2018-04-18T00:42:23.743Z,9.90
2018-04-18T00:44:51.434Z,10.00
2018-04-18T00:47:21.504Z,9.70
2018-04-18T00:49:49.215Z,9.90
2018-04-18T00:52:30.178Z,9.80
2018-04-18T00:54:58.638Z,9.80
2018-04-18T00:57:35.213Z,9.80
2018-04-18T01:00:03.380Z,9.80
2018-04-18T01:02:32.923Z,9.80
2018-04-18T01:05:01.462Z,9.70
2018-04-18T01:07:29.113Z,9.80
2018-04-18T01:09:56.837Z,9.90
2018-04-18T01:15:30.716Z,9.90
2018-04-18T01:17:58.801Z,9.60
2018-04-18T01:20:45.686Z,10.00
2018-04-18T01:23:13.365Z,10.50
2018-04-18T01:25:42.479Z,9.60
2018-04-18T01:28:10.161Z,9.40
2018-04-18T01:30:38.640Z,9.60
2018-04-18T01:33:06.305Z,9.50
2018-04-18T01:35:36.867Z,9.50
2018-04-18T01:38:04.589Z,9.50
2018-04-18T01:40:33.007Z,9.40
2018-04-18T01:43:00.714Z,9.50
2018-04-18T01:45:28.465Z,9.30
2018-04-18T01:47:57.688Z,9.30
2018-04-18T01:50:27.195Z,9.30
2018-04-18T01:52:55.636Z,9.20
2018-04-18T01:55:34.824Z,9.10
2018-04-18T01:58:03.250Z,9.20
2018-04-18T02:00:33.065Z,9.30
2018-04-18T02:03:01.514Z,9.10
2018-04-18T02:05:37.534Z,9.00
2018-04-18T02:08:06.715Z,9.00
2018-04-18T02:10:52.040Z,9.00
2018-04-18T02:13:20.112Z,9.30
2018-04-18T02:15:49.838Z,8.90
2018-04-18T02:18:18.690Z,8.90
2018-04-18T02:23:15.473Z,8.70
2018-04-18T02:25:54.825Z,8.90
2018-04-18T02:28:22.932Z,9.00
2018-04-18T02:30:57.121Z,8.80
2018-04-18T02:33:25.233Z,9.00
2018-04-18T02:35:58.951Z,9.10
2018-04-18T02:38:27.055Z,9.50
2018-04-18T02:40:57.519Z,8.70
2018-04-18T02:43:25.145Z,8.90
2018-04-18T02:46:03.770Z,8.50
2018-04-18T02:48:31.489Z,9.30
2018-04-18T02:50:59.268Z,8.50
2018-04-18T02:53:26.902Z,8.90
2018-04-18T02:56:10.440Z,8.60
2018-04-18T02:58:38.892Z,8.60
2018-04-18T03:01:18.966Z,8.80
2018-04-18T03:03:47.109Z,8.50
2018-04-18T03:06:28.042Z,9.00
2018-04-18T03:08:55.780Z,8.80
2018-04-18T03:11:28.269Z,8.60
2018-04-18T03:13:56.311Z,8.50
2018-04-18T03:16:34.690Z,8.50
2018-04-18T03:19:02.423Z,8.60
2018-04-18T03:21:42.633Z,8.90
2018-04-18T03:24:10.397Z,8.40
2018-04-18T03:26:38.642Z,8.70
2018-04-18T03:29:06.328Z,8.20
2018-04-18T03:31:36.162Z,8.10
2018-04-18T03:34:05.036Z,8.30
2018-04-18T03:36:33.117Z,8.40
2018-04-18T03:39:02.024Z,8.20
2018-04-18T03:41:30.481Z,8.20
2018-04-18T03:43:58.135Z,8.20
2018-04-18T03:46:27.858Z,8.30
2018-04-18T03:48:56.378Z,8.10
2018-04-18T03:51:24.119Z,8.30
2018-04-18T03:53:52.554Z,8.00
2018-04-18T03:56:21.427Z,8.00
2018-04-18T03:58:49.883Z,8.10
2018-04-18T04:01:19.973Z,8.00
2018-04-18T04:03:48.458Z,8.00
2018-04-18T04:06:16.504Z,8.00
2018-04-18T04:08:44.626Z,8.30
2018-04-18T04:11:12.660Z,8.00
2018-04-18T04:13:40.532Z,8.00
2018-04-18T04:16:26.237Z,8.00
2018-04-18T04:19:17.951Z,8.00
2018-04-18T04:22:09.933Z,7.90
2018-04-18T04:24:38.579Z,7.70
2018-04-18T04:27:10.462Z,7.70
2018-04-18T04:29:38.196Z,7.90
2018-04-18T04:32:10.871Z,8.00
2018-04-18T04:34:39.065Z,7.90
2018-04-18T04:40:14.463Z,8.30
2018-04-18T04:42:42.512Z,8.10
2018-04-18T04:45:10.903Z,8.10
2018-04-18T04:47:38.579Z,8.00
2018-04-18T04:50:11.582Z,7.90
2018-04-18T04:52:39.345Z,7.80
2018-04-18T04:55:11.220Z,8.10
2018-04-18T04:57:38.997Z,8.00
2018-04-18T05:00:21.794Z,8.10
2018-04-18T05:02:49.989Z,8.30
2018-04-18T05:05:17.693Z,8.10
2018-04-18T05:07:45.386Z,8.60
2018-04-18T05:10:13.078Z,8.50
2018-04-18T05:12:41.165Z,8.50
2018-04-18T05:15:08.879Z,8.60
2018-04-18T05:17:37.328Z,8.40
2018-04-18T05:20:16.044Z,8.70
2018-04-18T05:22:44.573Z,8.80
2018-04-18T05:25:13.361Z,9.30
2018-04-18T05:27:41.858Z,8.90
2018-04-18T05:30:12.272Z,9.10
2018-04-18T05:32:40.404Z,9.20
2018-04-18T05:35:12.193Z,9.30
2018-04-18T05:37:40.221Z,9.30
2018-04-18T05:40:09.465Z,9.30
2018-04-18T05:42:37.117Z,9.80
2018-04-18T05:45:13.339Z,9.80
2018-04-18T05:47:41.043Z,9.90
2018-04-18T05:50:33.837Z,9.90
2018-04-18T05:53:01.878Z,10.10
2018-04-18T05:55:33.088Z,10.10
2018-04-18T05:58:01.500Z,10.30
2018-04-18T06:00:36.475Z,10.70
2018-04-18T06:03:04.218Z,10.40
2018-04-18T06:05:34.301Z,10.60
2018-04-18T06:08:01.978Z,10.60
2018-04-18T06:10:41.432Z,11.00
2018-04-18T06:13:09.940Z,11.00
2018-04-18T06:15:40.799Z,11.20
2018-04-18T06:18:08.510Z,11.10
2018-04-18T06:20:54.068Z,11.40
2018-04-18T06:23:21.734Z,11.40
2018-04-18T06:25:50.429Z,11.70
2018-04-18T06:28:18.584Z,12.00
2018-04-18T06:30:49.449Z,11.50
2018-04-18T06:33:17.891Z,12.10
2018-04-18T06:35:47.598Z,11.90
2018-04-18T06:38:15.337Z,13.20
2018-04-18T06:40:57.654Z,12.60
2018-04-18T06:43:25.365Z,13.00
2018-04-18T06:45:54.884Z,13.00
2018-04-18T06:48:23.559Z,13.20
2018-04-18T06:50:55.305Z,13.30
2018-04-18T06:53:23.782Z,13.50
2018-04-18T06:55:53.597Z,13.90
2018-04-18T06:58:21.309Z,13.70
2018-04-18T07:00:49.776Z,14.00
2018-04-18T07:03:18.751Z,14.20
2018-04-18T07:05:50.965Z,14.40
2018-04-18T07:08:19.091Z,14.40
2018-04-18T07:10:48.622Z,14.70
2018-04-18T07:13:17.884Z,14.90
2018-04-18T07:15:45.520Z,15.00
2018-04-18T07:18:14.025Z,15.30
2018-04-18T07:20:43.741Z,15.70
2018-04-18T07:23:12.208Z,15.60
2018-04-18T07:25:41.943Z,15.80
2018-04-18T07:28:09.691Z,16.10
2018-04-18T07:30:47.539Z,16.00
2018-04-18T07:33:15.660Z,16.10
2018-04-18T07:35:43.850Z,16.30
2018-04-18T07:38:12.288Z,16.50
2018-04-18T07:40:41.396Z,16.20
2018-04-18T07:43:09.106Z,16.40
2018-04-18T07:45:38.603Z,17.00
2018-04-18T07:48:06.313Z,17.10
2018-04-18T07:50:38.748Z,17.40
2018-04-18T07:53:06.466Z,17.30
2018-04-18T07:55:43.773Z,17.70
2018-04-18T07:58:12.281Z,17.80
2018-04-18T08:00:41.012Z,18.00
2018-04-18T08:03:08.748Z,18.10
2018-04-18T08:05:36.404Z,17.50
2018-04-18T08:08:04.137Z,18.10
2018-04-18T08:10:31.886Z,18.20
2018-04-18T08:13:00.396Z,18.30
2018-04-18T08:15:28.549Z,18.60
2018-04-18T08:17:56.807Z,17.40
2018-04-18T08:20:24.453Z,18.60
2018-04-18T08:22:52.206Z,18.90
2018-04-18T08:25:27.387Z,19.20
2018-04-18T08:27:56.825Z,18.90
2018-04-18T08:30:30.839Z,18.70
2018-04-18T08:32:58.580Z,19.00
2018-04-18T08:35:31.261Z,19.00
2018-04-18T08:37:58.964Z,19.30
2018-04-18T08:40:35.746Z,19.60
2018-04-18T08:43:03.471Z,19.60
2018-04-18T08:45:31.201Z,19.20
2018-04-18T08:47:59.641Z,19.70
2018-04-18T08:50:37.894Z,19.90
2018-04-18T08:53:06.397Z,20.00
2018-04-18T08:55:35.883Z,20.00
2018-04-18T08:58:04.336Z,20.30
2018-04-18T09:00:39.967Z,20.60
2018-04-18T09:03:07.685Z,20.60
2018-04-18T09:05:35.448Z,20.40
2018-04-18T09:08:03.309Z,20.70
2018-04-18T09:10:35.244Z,20.70
2018-04-18T09:13:03.082Z,20.70
2018-04-18T09:15:38.002Z,21.10
2018-04-18T09:18:05.686Z,21.00
2018-04-18T09:20:37.248Z,21.20
2018-04-18T09:23:05.033Z,21.20
2018-04-18T09:25:34.698Z,21.80
2018-04-18T09:28:02.369Z,20.90
2018-04-18T09:30:32.155Z,21.70
2018-04-18T09:32:59.861Z,22.20
2018-04-18T09:35:27.765Z,22.30
2018-04-18T09:37:55.494Z,21.50
2018-04-18T09:40:24.243Z,22.20
2018-04-18T09:42:53.031Z,22.00
2018-04-18T09:45:22.687Z,22.00
2018-04-18T09:47:50.484Z,22.80
2018-04-18T09:50:22.742Z,22.60
2018-04-18T09:52:51.200Z,22.80
2018-04-18T09:55:26.008Z,22.90
2018-04-18T09:57:54.129Z,22.90
2018-04-18T10:00:27.430Z,23.00
2018-04-18T10:05:45.206Z,23.00
2018-04-18T10:08:13.947Z,23.60
2018-04-18T10:10:42.398Z,23.40
2018-04-18T10:13:19.939Z,23.70
2018-04-18T10:15:47.596Z,23.50
2018-04-18T10:18:20.814Z,24.20
2018-04-18T10:20:48.532Z,24.20
2018-04-18T10:23:17.623Z,23.60
2018-04-18T10:25:46.155Z,23.50
2018-04-18T10:28:20.127Z,23.80
2018-04-18T10:30:48.605Z,23.70
2018-04-18T10:33:24.544Z,23.80
2018-04-18T10:35:53.065Z,23.70
2018-04-18T10:38:24.083Z,24.00
2018-04-18T10:40:51.833Z,23.60
2018-04-18T10:43:23.418Z,24.70
2018-04-18T10:45:51.166Z,24.20
2018-04-18T10:48:29.552Z,24.60
2018-04-18T10:50:57.195Z,24.30
2018-04-18T10:53:31.742Z,24.30
2018-04-18T10:55:59.449Z,24.50
2018-04-18T10:58:46.268Z,24.80
2018-04-18T11:01:14.025Z,26.10
2018-04-18T11:03:43.841Z,25.10
2018-04-18T11:06:16.459Z,25.10
2018-04-18T11:08:44.105Z,25.70
2018-04-18T11:11:17.469Z,26.30
2018-04-18T11:13:45.189Z,25.50
2018-04-18T11:16:26.701Z,25.70
2018-04-18T11:18:54.448Z,25.70
2018-04-18T11:21:29.724Z,25.90
2018-04-18T11:23:57.806Z,26.00
2018-04-18T11:26:32.271Z,26.20
2018-04-18T11:29:00.039Z,26.40
2018-04-18T11:31:31.924Z,25.70
2018-04-18T11:33:59.636Z,26.20
2018-04-18T11:36:28.147Z,25.70
2018-04-18T11:38:55.847Z,25.50
2018-04-18T11:41:24.584Z,25.30
2018-04-18T11:43:52.242Z,25.70
2018-04-18T11:46:20.901Z,25.80
2018-04-18T11:48:48.597Z,26.40
2018-04-18T11:51:17.787Z,25.50
2018-04-18T11:53:45.554Z,26.10
2018-04-18T11:56:13.199Z,26.00
2018-04-18T11:58:40.920Z,26.60
2018-04-18T12:01:09.690Z,26.30
2018-04-18T12:03:38.179Z,26.80
2018-04-18T12:06:05.896Z,27.20
2018-04-18T12:08:34.161Z,26.60
2018-04-18T12:11:12.563Z,26.90
2018-04-18T12:13:40.340Z,26.80
2018-04-18T12:16:26.220Z,27.00
2018-04-18T12:18:53.873Z,27.70
2018-04-18T12:21:22.600Z,27.70
2018-04-18T12:23:51.803Z,27.00
2018-04-18T12:29:20.184Z,27.70
2018-04-18T12:31:47.895Z,27.30
2018-04-18T12:34:17.567Z,27.30
2018-04-18T12:36:45.620Z,27.50
2018-04-18T12:39:15.064Z,27.20
2018-04-18T12:41:43.470Z,27.20
2018-04-18T12:44:36.494Z,26.40
2018-04-18T12:47:04.922Z,27.00
2018-04-18T12:49:44.164Z,26.90
2018-04-18T12:52:12.200Z,27.10
2018-04-18T12:54:46.873Z,27.00
2018-04-18T12:57:14.574Z,27.20
2018-04-18T12:59:48.741Z,27.40
2018-04-18T13:02:16.382Z,27.50
2018-04-18T13:04:52.696Z,26.60
2018-04-18T13:07:20.412Z,27.00
2018-04-18T13:09:53.258Z,27.80
2018-04-18T13:12:21.763Z,27.90
2018-04-18T13:14:50.522Z,27.50
2018-04-18T13:17:19.096Z,27.50
2018-04-18T13:19:57.588Z,29.10
2018-04-18T13:22:25.321Z,27.20
2018-04-18T13:25:06.175Z,27.30
2018-04-18T13:27:33.913Z,27.70
2018-04-18T13:30:06.601Z,27.80
2018-04-18T13:32:34.648Z,29.00
2018-04-18T13:35:03.806Z,28.90
2018-04-18T13:37:31.516Z,28.20
2018-04-18T13:40:25.197Z,28.30
2018-04-18T13:42:53.316Z,28.60
2018-04-18T13:45:32.967Z,27.90
2018-04-18T13:48:00.667Z,27.90
2018-04-18T13:50:39.405Z,29.20
2018-04-18T13:53:07.129Z,29.50
2018-04-18T13:58:32.517Z,29.30
2018-04-18T14:01:00.220Z,29.40
2018-04-18T14:06:23.430Z,29.50
2018-04-18T14:08:52.033Z,29.40
2018-04-18T14:11:22.914Z,29.30
2018-04-18T14:13:50.619Z,30.70
2018-04-18T14:16:23.725Z,30.50
2018-04-18T14:18:51.416Z,30.00
2018-04-18T14:21:20.159Z,29.50
2018-04-18T14:23:47.915Z,31.30
2018-04-18T14:26:16.347Z,31.30
2018-04-18T14:28:44.787Z,31.50
2018-04-18T14:31:12.660Z,32.50
2018-04-18T14:33:40.699Z,32.20
2018-04-18T14:36:09.210Z,32.40
2018-04-18T14:38:37.218Z,32.40
2018-04-18T14:41:12.399Z,32.30
2018-04-18T14:43:44.801Z,32.40
2018-04-18T14:49:07.237Z,32.50
2018-04-18T14:51:34.952Z,32.70
2018-04-18T14:54:20.868Z,32.90
2018-04-18T14:56:48.977Z,33.20
2018-04-18T14:59:25.257Z,33.70
2018-04-18T15:01:52.981Z,33.70
2018-04-18T15:04:26.318Z,33.70
2018-04-18T15:06:53.944Z,34.60
2018-04-18T15:09:22.817Z,34.00
2018-04-18T15:14:24.726Z,33.60
2018-04-18T15:16:52.463Z,33.50
2018-04-18T15:19:23.976Z,33.60
2018-04-18T15:21:51.660Z,32.80
2018-04-18T15:26:49.356Z,32.10
2018-04-18T15:29:19.004Z,32.00
2018-04-18T15:31:46.701Z,32.20
2018-04-18T15:36:44.070Z,32.60
2018-04-18T15:39:13.229Z,33.40
2018-04-18T15:41:40.883Z,33.60
2018-04-18T15:44:09.104Z,33.70
2018-04-18T15:46:37.209Z,33.50
2018-04-18T15:49:11.093Z,32.00
2018-04-18T15:51:38.832Z,33.30
2018-04-18T15:56:48.525Z,33.90
2018-04-18T16:04:15.418Z,33.80
2018-04-18T16:06:43.112Z,33.30
2018-04-18T16:11:39.920Z,33.80
2018-04-18T16:14:08.083Z,34.00
2018-04-18T16:16:37.377Z,33.60
2018-04-18T16:19:06.048Z,33.40
2018-04-18T16:21:33.784Z,33.10
2018-04-18T16:24:01.524Z,32.80
2018-04-18T16:31:28.818Z,32.00
2018-04-18T16:33:56.497Z,31.20
2018-04-18T16:41:26.662Z,31.50
2018-04-18T16:43:54.370Z,31.50
2018-04-18T16:46:23.615Z,31.80
2018-04-18T16:51:22.166Z,31.80
2018-04-18T16:53:49.922Z,32.30
2018-04-18T16:56:18.626Z,31.50
2018-04-18T17:01:22.141Z,30.90
2018-04-18T17:03:50.664Z,30.10
2018-04-18T17:06:22.998Z,28.90
2018-04-18T17:08:51.568Z,28.00
2018-04-18T17:13:49.038Z,26.50
2018-04-18T17:16:23.761Z,26.20
2018-04-18T17:18:51.428Z,25.20
2018-04-18T17:21:20.934Z,25.00
2018-04-18T17:26:17.706Z,24.40
2018-04-18T17:28:46.179Z,24.20
2018-04-18T17:31:22.862Z,24.10
2018-04-18T17:33:51.897Z,24.00
2018-04-18T17:38:55.802Z,24.00
2018-04-18T17:41:27.092Z,23.60
2018-04-18T17:43:55.054Z,22.70
2018-04-18T17:46:30.361Z,23.20
2018-04-18T17:49:02.874Z,23.00
2018-04-18T17:54:08.686Z,22.70
2018-04-18T17:56:40.636Z,22.50
2018-04-18T17:59:23.336Z,22.30
2018-04-18T18:01:55.150Z,22.20
2018-04-18T18:04:33.829Z,22.20
2018-04-18T18:07:02.030Z,22.10
2018-04-18T18:09:44.243Z,21.60
2018-04-18T18:12:12.346Z,21.60
2018-04-18T18:14:41.257Z,21.80
2018-04-18T18:19:39.189Z,21.30
2018-04-18T18:27:53.372Z,20.60
2018-04-18T18:30:23.036Z,20.40
2018-04-18T18:32:51.493Z,20.30
2018-04-18T18:35:36.360Z,20.30
2018-04-18T18:38:04.136Z,20.10
2018-04-18T18:40:33.660Z,20.00
2018-04-18T18:43:02.154Z,19.90
2018-04-18T18:45:34.514Z,19.90
2018-04-18T18:48:03.774Z,19.60
2018-04-18T18:50:36.192Z,19.50
2018-04-18T18:53:04.320Z,19.50
2018-04-18T18:55:35.492Z,20.00
2018-04-18T18:58:03.641Z,19.20
2018-04-18T19:05:56.006Z,18.90
2018-04-18T19:08:30.994Z,18.70
2018-04-18T19:10:58.837Z,18.70
2018-04-18T19:13:26.601Z,18.80
2018-04-18T19:15:55.149Z,18.50
2018-04-18T19:18:23.930Z,18.60
2018-04-18T19:23:30.253Z,18.40
2018-04-18T19:25:58.721Z,18.30
2018-04-18T19:28:28.486Z,17.70
2018-04-18T19:30:56.185Z,18.50
2018-04-18T19:33:31.479Z,17.90
2018-04-18T19:36:00.120Z,17.80
2018-04-18T19:38:39.143Z,17.70
2018-04-18T19:41:06.870Z,17.70
2018-04-18T19:43:38.600Z,17.60
2018-04-18T19:46:06.435Z,17.60
2018-04-18T19:48:35.139Z,17.70
2018-04-18T19:51:03.663Z,17.20
2018-04-18T19:53:35.885Z,17.10
2018-04-18T19:56:04.513Z,17.00
2018-04-18T20:01:27.991Z,17.00
2018-04-18T20:03:55.665Z,17.00
2018-04-18T20:06:26.650Z,16.60
2018-04-18T20:08:55.885Z,16.80
2018-04-18T20:11:25.977Z,16.70
2018-04-18T20:13:54.870Z,16.70
2018-04-18T20:16:29.653Z,16.60
2018-04-18T20:18:57.448Z,16.60
2018-04-18T20:21:27.589Z,16.50
2018-04-18T20:23:55.292Z,16.50
2018-04-18T20:26:23.824Z,16.40
2018-04-18T20:28:52.261Z,16.30
2018-04-18T20:31:34.856Z,16.30
2018-04-18T20:34:02.916Z,16.00
2018-04-18T20:39:41.024Z,16.20
2018-04-18T20:42:09.037Z,16.30
2018-04-18T20:44:51.137Z,15.70
2018-04-18T20:47:19.241Z,15.80
2018-04-18T20:49:51.477Z,15.70
2018-04-18T20:52:19.144Z,15.50
2018-04-18T20:54:50.120Z,15.80
2018-04-18T20:57:18.570Z,15.60
2018-04-18T20:59:48.841Z,15.60
2018-04-18T21:02:16.485Z,15.30
2018-04-18T21:04:45.972Z,15.50
2018-04-18T21:07:13.656Z,15.60
2018-04-18T21:09:43.155Z,15.40
2018-04-18T21:12:11.595Z,15.30
2018-04-18T21:17:34.643Z,15.20
2018-04-18T21:20:02.388Z,15.30
2018-04-18T21:22:34.724Z,15.10
2018-04-18T21:25:02.583Z,15.00
2018-04-18T21:27:34.059Z,15.00
2018-04-18T21:30:02.949Z,14.90
2018-04-18T21:32:33.553Z,14.90
2018-04-18T21:35:01.245Z,14.30
2018-04-18T21:37:31.789Z,14.70
2018-04-18T21:40:00.235Z,14.70
2018-04-18T21:42:28.949Z,14.60
2018-04-18T21:44:57.435Z,14.60
2018-04-18T21:47:25.184Z,14.60
2018-04-18T21:49:53.313Z,14.60
2018-04-18T21:52:20.984Z,14.50
2018-04-18T21:54:49.604Z,14.60
2018-04-18T21:57:18.070Z,14.50
2018-04-18T21:59:45.818Z,14.50
2018-04-18T22:02:13.536Z,14.40
2018-04-18T22:07:12.677Z,14.50
2018-04-18T22:09:40.376Z,14.20
2018-04-18T22:12:08.818Z,14.20
2018-04-18T22:14:36.550Z,13.90
2018-04-18T22:17:05.617Z,14.10
2018-04-18T22:19:33.850Z,14.80
2018-04-18T22:22:02.347Z,14.00
2018-04-18T22:24:30.048Z,14.00
2018-04-18T22:27:22.013Z,14.00
2018-04-18T22:29:50.561Z,14.00
2018-04-18T22:32:20.677Z,13.70
2018-04-18T22:34:49.153Z,13.90
2018-04-18T22:37:20.481Z,14.10
2018-04-18T22:39:48.118Z,13.80
2018-04-18T22:42:16.856Z,13.50
2018-04-18T22:44:44.938Z,13.60
2018-04-18T22:47:37.883Z,13.50
2018-04-18T22:50:06.334Z,13.60
2018-04-18T22:52:40.520Z,13.50
2018-04-18T22:55:08.250Z,13.40
2018-04-18T22:57:36.845Z,13.80
2018-04-18T23:00:04.649Z,13.30
2018-04-18T23:02:43.549Z,13.40
2018-04-18T23:05:11.640Z,13.20
2018-04-18T23:07:50.628Z,13.20
2018-04-18T23:10:18.736Z,13.20
2018-04-18T23:12:48.875Z,13.20
2018-04-18T23:15:16.646Z,13.30
2018-04-18T23:17:46.134Z,13.20
2018-04-18T23:20:14.196Z,13.20
2018-04-18T23:22:44.605Z,13.20
2018-04-18T23:25:12.296Z,13.10
2018-04-18T23:27:44.482Z,13.50
2018-04-18T23:30:13.410Z,13.10
2018-04-18T23:32:42.152Z,13.10
2018-04-18T23:35:09.812Z,13.10
2018-04-18T23:37:43.218Z,12.70
2018-04-18T23:40:11.851Z,12.80
2018-04-18T23:42:45.314Z,12.60
2018-04-18T23:45:13.133Z,12.40
2018-04-18T23:47:57.320Z,12.30
2018-04-18T23:50:25.809Z,12.40
2018-04-18T23:52:53.930Z,12.60
2018-04-18T23:55:22.109Z,11.80
2018-04-18T23:57:55.029Z,12.40
